createdAt,value
2022-10-07T00:01:01.592Z,11.20
2022-10-07T00:03:30.242Z,14.88
2022-10-07T00:06:19.501Z,16.98
2022-10-07T00:08:49.940Z,11.75
2022-10-07T00:11:24.127Z,14.25
2022-10-07T00:13:55.259Z,12.93
2022-10-07T00:16:30.292Z,19.85
2022-10-07T00:21:29.850Z,16.02
2022-10-07T00:23:58.155Z,11.82
2022-10-07T00:26:29.615Z,15.32
2022-10-07T00:28:57.339Z,13.07
2022-10-07T00:31:30.370Z,11.85
2022-10-07T00:33:58.580Z,17.05
2022-10-07T00:36:31.863Z,14.45
2022-10-07T00:39:03.058Z,13.57
2022-10-07T00:41:39.531Z,14.00
2022-10-07T00:44:46.310Z,15.43
2022-10-07T00:47:31.687Z,13.80
2022-10-07T00:50:13.821Z,17.13
2022-10-07T00:52:48.083Z,16.70
2022-10-07T00:55:20.847Z,11.23
2022-10-07T00:57:50.167Z,11.07
2022-10-07T01:00:17.983Z,11.80
2022-10-07T01:02:45.356Z,17.60
2022-10-07T01:05:14.404Z,14.00
2022-10-07T01:07:42.579Z,14.95
2022-10-07T01:10:12.152Z,16.08
2022-10-07T01:12:54.202Z,10.20
2022-10-07T01:15:32.987Z,14.52
2022-10-07T01:18:11.328Z,13.18
2022-10-07T01:20:47.024Z,11.95
2022-10-07T01:23:25.535Z,15.77
2022-10-07T01:26:08.149Z,18.13
2022-10-07T01:28:41.411Z,14.40
2022-10-07T01:31:13.025Z,16.02
2022-10-07T01:33:42.503Z,15.68
2022-10-07T01:36:17.808Z,15.05
2022-10-07T01:38:53.224Z,12.88
2022-10-07T01:41:22.107Z,15.57
2022-10-07T01:43:54.089Z,14.52
2022-10-07T01:46:26.973Z,13.25
2022-10-07T01:48:55.224Z,15.15
2022-10-07T01:51:28.627Z,15.98
2022-10-07T01:54:17.230Z,15.57
2022-10-07T01:57:14.109Z,14.55
2022-10-07T02:00:10.275Z,15.40
2022-10-07T02:03:33.035Z,15.65
2022-10-07T02:06:18.364Z,16.50
2022-10-07T02:08:50.571Z,10.43
2022-10-07T02:11:29.033Z,17.20
2022-10-07T02:14:14.874Z,14.88
2022-10-07T02:16:47.354Z,18.60
2022-10-07T02:19:24.526Z,15.85
2022-10-07T02:21:54.006Z,19.85
2022-10-07T02:24:24.609Z,15.60
2022-10-07T02:26:53.853Z,16.40
2022-10-07T02:29:23.334Z,14.45
2022-10-07T02:31:52.799Z,12.77
2022-10-07T02:34:23.318Z,15.07
2022-10-07T02:37:06.089Z,12.20
2022-10-07T02:39:33.957Z,12.73
2022-10-07T02:42:28.340Z,20.55
2022-10-07T02:45:10.844Z,11.75
2022-10-07T02:47:51.371Z,16.52
2022-10-07T02:50:39.185Z,16.92
2022-10-07T02:53:07.124Z,13.48
2022-10-07T02:55:35.259Z,13.10
2022-10-07T02:58:07.059Z,14.90
2022-10-07T03:00:39.759Z,14.77
2022-10-07T03:03:06.681Z,17.60
2022-10-07T03:05:35.393Z,9.02
2022-10-07T03:08:08.986Z,11.68
2022-10-07T03:10:36.705Z,16.08
2022-10-07T03:13:05.172Z,15.27
2022-10-07T03:15:33.106Z,9.75
2022-10-07T03:18:00.029Z,12.77
2022-10-07T03:20:27.026Z,16.55
2022-10-07T03:22:54.036Z,13.15
2022-10-07T03:25:20.867Z,14.70
2022-10-07T03:27:49.094Z,10.70
2022-10-07T03:30:15.937Z,13.52
2022-10-07T03:32:42.941Z,15.00
2022-10-07T03:35:10.782Z,13.77
2022-10-07T03:37:37.653Z,13.85
2022-10-07T03:40:05.745Z,12.25
2022-10-07T03:42:32.636Z,16.67
2022-10-07T03:45:00.212Z,14.43
2022-10-07T03:47:27.605Z,13.43
2022-10-07T03:49:55.139Z,10.55
2022-10-07T03:52:22.042Z,12.02
2022-10-07T03:54:48.934Z,17.45
2022-10-07T03:57:34.206Z,19.55
2022-10-07T04:00:01.010Z,17.02
2022-10-07T04:02:28.370Z,11.18
2022-10-07T04:04:55.559Z,13.38
2022-10-07T04:07:22.939Z,13.85
2022-10-07T04:09:49.982Z,13.52
2022-10-07T04:12:17.105Z,11.27
2022-10-07T04:14:43.977Z,21.13
2022-10-07T04:17:11.631Z,13.20
2022-10-07T04:19:38.424Z,16.13
2022-10-07T04:22:08.962Z,19.40
2022-10-07T04:24:36.703Z,17.15
2022-10-07T04:27:07.142Z,17.55
2022-10-07T04:29:38.306Z,12.20
2022-10-07T04:32:06.157Z,17.10
2022-10-07T04:34:33.102Z,19.95
2022-10-07T04:37:01.423Z,16.60
2022-10-07T04:39:48.952Z,13.75
2022-10-07T04:42:34.318Z,17.70
2022-10-07T04:45:01.178Z,23.13
2022-10-07T04:47:28.115Z,13.55
2022-10-07T04:49:55.507Z,19.25
2022-10-07T04:52:22.542Z,18.27
2022-10-07T04:54:49.495Z,13.35
2022-10-07T04:57:16.400Z,20.65
2022-10-07T04:59:43.390Z,16.90
2022-10-07T05:02:10.457Z,15.73
2022-10-07T05:04:37.558Z,18.55
2022-10-07T05:07:05.048Z,16.30
2022-10-07T05:09:32.018Z,12.77
2022-10-07T05:11:58.921Z,13.27
2022-10-07T05:14:26.261Z,19.65
2022-10-07T05:16:54.403Z,20.73
2022-10-07T05:19:21.402Z,19.40
2022-10-07T05:21:48.238Z,17.17
2022-10-07T05:24:15.120Z,15.52
2022-10-07T05:26:42.245Z,15.77
2022-10-07T05:29:10.165Z,16.10
2022-10-07T05:31:37.066Z,19.98
2022-10-07T05:34:04.071Z,16.67
2022-10-07T05:36:31.085Z,13.85
2022-10-07T05:38:58.393Z,17.52
2022-10-07T05:41:25.893Z,14.57
2022-10-07T05:43:52.758Z,14.75
2022-10-07T05:46:20.821Z,12.23
2022-10-07T05:48:53.901Z,12.45
2022-10-07T05:51:23.090Z,11.95
2022-10-07T05:53:54.844Z,14.43
2022-10-07T05:56:22.086Z,15.25
2022-10-07T05:58:50.431Z,17.27
2022-10-07T06:01:20.907Z,11.05
2022-10-07T06:03:54.614Z,15.23
2022-10-07T06:06:21.749Z,19.58
2022-10-07T06:08:49.803Z,17.15
2022-10-07T06:11:37.512Z,16.02
2022-10-07T06:14:06.342Z,12.32
2022-10-07T06:16:33.615Z,12.93
2022-10-07T06:19:01.053Z,13.30
2022-10-07T06:21:28.515Z,14.73
2022-10-07T06:23:58.591Z,13.50
2022-10-07T06:26:25.589Z,12.10
2022-10-07T06:28:52.605Z,13.73
2022-10-07T06:31:24.932Z,10.43
2022-10-07T06:33:52.826Z,20.45
2022-10-07T06:36:20.830Z,17.58
2022-10-07T06:38:53.187Z,12.70
2022-10-07T06:41:22.135Z,15.27
2022-10-07T06:43:49.163Z,21.48
2022-10-07T06:46:19.927Z,10.10
2022-10-07T06:48:47.502Z,14.63
2022-10-07T06:51:24.363Z,16.13
2022-10-07T06:53:54.236Z,16.65
2022-10-07T06:56:21.554Z,17.67
2022-10-07T06:58:50.038Z,16.00
2022-10-07T07:01:17.425Z,14.40
2022-10-07T07:03:44.530Z,11.38
2022-10-07T07:06:11.710Z,18.88
2022-10-07T07:08:41.415Z,19.85
2022-10-07T07:11:32.266Z,14.70
2022-10-07T07:13:59.679Z,14.52
2022-10-07T07:16:27.099Z,18.10
2022-10-07T07:19:03.162Z,15.02
2022-10-07T07:21:34.760Z,13.93
2022-10-07T07:24:03.149Z,15.98
2022-10-07T07:26:48.682Z,12.00
2022-10-07T07:31:44.219Z,12.00
2022-10-07T07:34:14.230Z,10.73
2022-10-07T07:36:47.445Z,12.30
2022-10-07T07:39:17.886Z,15.18
2022-10-07T07:41:51.027Z,13.63
2022-10-07T07:44:19.412Z,13.13
2022-10-07T07:46:51.610Z,8.00
2022-10-07T07:49:20.276Z,13.75
2022-10-07T07:51:47.965Z,9.60
2022-10-07T07:54:16.172Z,11.57
2022-10-07T07:56:43.185Z,12.18
2022-10-07T07:59:11.520Z,12.70
2022-10-07T08:01:39.220Z,15.63
2022-10-07T08:04:06.942Z,13.75
2022-10-07T08:06:34.837Z,11.93
2022-10-07T08:09:02.028Z,16.55
2022-10-07T08:11:30.353Z,12.35
2022-10-07T08:13:57.382Z,9.88
2022-10-07T08:16:27.790Z,12.43
2022-10-07T08:18:57.453Z,16.38
2022-10-07T08:21:28.242Z,9.82
2022-10-07T08:23:58.492Z,11.13
2022-10-07T08:26:31.720Z,12.55
2022-10-07T08:28:59.972Z,12.40
2022-10-07T08:31:29.562Z,15.10
2022-10-07T08:33:59.671Z,15.02
2022-10-07T08:36:29.711Z,12.93
2022-10-07T08:38:57.154Z,9.77
2022-10-07T08:41:53.443Z,14.07
2022-10-07T08:44:43.841Z,10.40
2022-10-07T08:47:16.859Z,14.93
2022-10-07T08:50:04.623Z,14.02
2022-10-07T08:52:37.819Z,10.00
2022-10-07T08:55:22.712Z,12.05
2022-10-07T08:58:31.297Z,12.85
2022-10-07T09:01:15.674Z,12.60
2022-10-07T09:03:54.241Z,8.50
2022-10-07T09:06:32.737Z,13.27
2022-10-07T09:09:06.833Z,13.48
2022-10-07T09:11:35.885Z,8.98
2022-10-07T09:14:29.290Z,9.43
2022-10-07T09:17:08.558Z,14.75
2022-10-07T09:19:50.826Z,9.35
2022-10-07T09:22:21.855Z,9.68
2022-10-07T09:24:54.232Z,7.65
2022-10-07T09:27:23.162Z,8.00
2022-10-07T09:29:51.781Z,10.32
2022-10-07T09:32:19.902Z,13.02
2022-10-07T09:34:47.721Z,11.20
2022-10-07T09:37:23.619Z,11.40
2022-10-07T09:39:54.004Z,12.05
2022-10-07T09:42:45.920Z,12.50
2022-10-07T09:45:22.718Z,12.85
2022-10-07T09:47:56.858Z,11.85
2022-10-07T09:50:41.551Z,10.65
2022-10-07T09:53:29.511Z,9.33
2022-10-07T09:55:56.569Z,12.15
2022-10-07T09:58:31.817Z,11.50
2022-10-07T10:01:01.940Z,9.13
2022-10-07T10:03:32.501Z,11.90
2022-10-07T10:06:06.071Z,9.55
2022-10-07T10:08:37.118Z,8.27
2022-10-07T10:11:28.660Z,10.80
2022-10-07T10:13:56.014Z,8.98
2022-10-07T10:16:26.313Z,9.32
2022-10-07T10:18:59.927Z,8.95
2022-10-07T10:21:30.786Z,6.32
2022-10-07T10:24:06.381Z,9.30
2022-10-07T10:27:01.686Z,10.45
2022-10-07T10:30:01.927Z,13.55
2022-10-07T10:32:54.475Z,11.40
2022-10-07T10:35:29.968Z,14.77
2022-10-07T10:38:33.539Z,8.02
2022-10-07T10:42:09.334Z,9.85
2022-10-07T10:45:04.221Z,11.63
2022-10-07T10:48:07.861Z,9.63
2022-10-07T10:50:51.691Z,6.55
2022-10-07T10:53:35.162Z,8.02
2022-10-07T10:56:14.678Z,7.88
2022-10-07T10:58:58.694Z,6.68
2022-10-07T11:01:35.135Z,10.02
2022-10-07T11:04:39.784Z,8.15
2022-10-07T11:07:21.426Z,6.47
2022-10-07T11:10:21.778Z,9.15
2022-10-07T11:12:59.825Z,8.07
2022-10-07T11:15:57.254Z,10.25
2022-10-07T11:18:46.049Z,5.80
2022-10-07T11:21:40.757Z,10.63
2022-10-07T11:24:24.586Z,7.00
2022-10-07T11:27:04.238Z,6.00
2022-10-07T11:29:48.537Z,9.73
2022-10-07T11:32:29.551Z,6.30
2022-10-07T11:35:10.533Z,6.68
2022-10-07T11:37:47.895Z,9.63
2022-10-07T11:40:16.664Z,9.48
2022-10-07T11:42:50.013Z,6.97
2022-10-07T11:45:25.730Z,7.18
2022-10-07T11:48:01.197Z,6.90
2022-10-07T11:50:56.850Z,8.95
2022-10-07T11:53:28.674Z,6.53
2022-10-07T11:56:20.558Z,7.85
2022-10-07T11:59:05.050Z,7.43
2022-10-07T12:01:35.064Z,10.07
2022-10-07T12:04:35.885Z,12.43
2022-10-07T12:07:35.158Z,9.63
2022-10-07T12:10:02.166Z,8.30
2022-10-07T12:12:47.852Z,9.82
2022-10-07T12:15:38.945Z,10.40
2022-10-07T12:18:05.862Z,11.18
2022-10-07T12:20:35.806Z,9.82
2022-10-07T12:23:20.882Z,7.85
2022-10-07T12:25:53.739Z,10.55
2022-10-07T12:28:40.876Z,12.35
2022-10-07T12:31:18.014Z,9.40
2022-10-07T12:33:47.657Z,5.93
2022-10-07T12:36:26.434Z,5.45
2022-10-07T12:38:56.633Z,6.05
2022-10-07T12:41:40.597Z,8.63
2022-10-07T12:44:46.065Z,6.32
2022-10-07T12:47:29.215Z,10.18
2022-10-07T12:50:05.136Z,8.88
2022-10-07T12:52:53.184Z,7.70
2022-10-07T12:55:37.438Z,7.70
2022-10-07T12:59:15.532Z,10.15
2022-10-07T13:02:18.518Z,6.38
2022-10-07T13:08:48.217Z,9.77
2022-10-07T13:11:29.908Z,10.60
2022-10-07T13:14:12.082Z,4.78
2022-10-07T13:16:49.783Z,4.25
2022-10-07T13:19:30.529Z,3.53
2022-10-07T13:22:26.536Z,1.35
2022-10-07T13:24:58.699Z,2.95
2022-10-07T13:27:30.130Z,1.75
2022-10-07T13:30:01.525Z,3.70
2022-10-07T13:32:35.396Z,2.17
2022-10-07T13:35:30.158Z,1.98
2022-10-07T13:37:57.230Z,3.22
2022-10-07T13:40:35.640Z,1.85
2022-10-07T13:43:07.503Z,3.78
2022-10-07T13:45:45.370Z,2.35
2022-10-07T13:48:29.050Z,4.43
2022-10-07T13:50:59.510Z,3.88
2022-10-07T13:53:36.504Z,3.67
2022-10-07T13:56:09.430Z,1.98
2022-10-07T13:58:37.237Z,1.73
2022-10-07T14:01:06.938Z,2.38
2022-10-07T14:03:33.865Z,2.05
2022-10-07T14:06:01.634Z,3.30
2022-10-07T14:08:29.417Z,3.80
2022-10-07T14:11:09.026Z,2.90
2022-10-07T14:13:37.960Z,4.07
2022-10-07T14:16:05.476Z,5.60
2022-10-07T14:18:32.319Z,3.80
2022-10-07T14:21:14.620Z,3.58
2022-10-07T14:23:41.616Z,3.95
2022-10-07T14:26:11.211Z,5.57
2022-10-07T14:28:39.441Z,7.18
2022-10-07T14:31:39.165Z,7.03
2022-10-07T14:34:39.079Z,9.00
2022-10-07T14:37:19.150Z,7.47
2022-10-07T14:39:48.845Z,6.97
2022-10-07T14:42:29.141Z,8.80
2022-10-07T14:44:57.808Z,11.32
2022-10-07T14:47:28.416Z,7.03
2022-10-07T14:49:58.100Z,8.63
2022-10-07T14:52:30.131Z,8.48
2022-10-07T14:55:26.561Z,10.15
2022-10-07T14:57:54.228Z,10.50
2022-10-07T15:00:29.522Z,10.77
2022-10-07T15:02:56.955Z,12.85
2022-10-07T15:05:24.469Z,12.90
2022-10-07T15:07:51.374Z,12.85
2022-10-07T15:10:25.440Z,14.30
2022-10-07T15:12:53.921Z,14.68
2022-10-07T15:15:20.772Z,13.30
2022-10-07T15:17:48.352Z,10.43
2022-10-07T15:20:16.347Z,15.02
2022-10-07T15:22:44.553Z,10.32
2022-10-07T15:25:13.053Z,10.10
2022-10-07T15:27:40.444Z,8.48
2022-10-07T15:30:08.246Z,13.10
2022-10-07T15:32:35.031Z,13.30
2022-10-07T15:35:02.148Z,12.90
2022-10-07T15:37:29.040Z,10.25
2022-10-07T15:39:56.247Z,12.40
2022-10-07T15:42:24.819Z,10.43
2022-10-07T15:44:52.849Z,19.05
2022-10-07T15:47:19.868Z,16.63
2022-10-07T15:49:46.757Z,13.25
2022-10-07T15:52:13.870Z,11.77
2022-10-07T15:54:40.740Z,13.20
2022-10-07T15:57:08.517Z,15.13
2022-10-07T15:59:35.896Z,12.13
2022-10-07T16:02:04.477Z,16.88
2022-10-07T16:04:31.480Z,15.07
2022-10-07T16:06:58.538Z,13.10
2022-10-07T16:09:25.414Z,19.40
2022-10-07T16:11:52.270Z,16.13
2022-10-07T16:14:19.099Z,11.75
2022-10-07T16:16:46.322Z,15.20
2022-10-07T16:19:13.134Z,14.52
2022-10-07T16:21:42.225Z,15.48
2022-10-07T16:24:18.452Z,16.17
2022-10-07T16:26:47.089Z,14.30
2022-10-07T16:29:37.465Z,19.33
2022-10-07T16:32:08.005Z,15.77
2022-10-07T16:34:35.169Z,17.25
2022-10-07T16:37:01.984Z,12.77
2022-10-07T16:39:28.848Z,14.75
2022-10-07T16:41:56.706Z,16.92
2022-10-07T16:44:24.870Z,13.00
2022-10-07T16:46:56.820Z,16.40
2022-10-07T16:49:26.234Z,9.60
2022-10-07T16:51:53.274Z,11.18
2022-10-07T16:54:21.992Z,19.05
2022-10-07T16:56:52.749Z,14.13
2022-10-07T16:59:24.765Z,17.63
2022-10-07T17:01:56.953Z,17.65
2022-10-07T17:04:25.199Z,12.68
2022-10-07T17:06:52.784Z,13.98
2022-10-07T17:09:19.730Z,14.55
2022-10-07T17:11:46.996Z,15.75
2022-10-07T17:14:20.305Z,19.25
2022-10-07T17:16:51.156Z,12.60
2022-10-07T17:19:22.280Z,19.17
2022-10-07T17:21:50.715Z,14.57
2022-10-07T17:24:19.752Z,14.73
2022-10-07T17:26:47.812Z,12.32
2022-10-07T17:29:21.237Z,16.27
2022-10-07T17:31:51.085Z,13.20
2022-10-07T17:34:20.809Z,6.35
2022-10-07T17:36:49.077Z,5.97
2022-10-07T17:39:17.725Z,8.75
2022-10-07T17:41:44.767Z,4.80
2022-10-07T17:44:12.949Z,3.60
2022-10-07T17:46:41.087Z,5.50
2022-10-07T17:49:13.590Z,6.25
2022-10-07T17:51:42.701Z,9.90
2022-10-07T17:54:12.157Z,5.03
2022-10-07T17:56:38.997Z,7.32
2022-10-07T17:59:05.818Z,9.13
2022-10-07T18:01:34.740Z,4.82
2022-10-07T18:04:08.159Z,8.82
2022-10-07T18:06:37.973Z,7.40
2022-10-07T18:09:07.116Z,7.07
2022-10-07T18:11:52.969Z,7.60
2022-10-07T18:14:38.997Z,8.93
2022-10-07T18:17:07.273Z,10.07
2022-10-07T18:19:34.391Z,7.90
2022-10-07T18:22:03.285Z,11.15
2022-10-07T18:24:30.518Z,9.57
2022-10-07T18:27:00.099Z,8.38
2022-10-07T18:29:33.602Z,8.68
2022-10-07T18:32:01.075Z,9.85
2022-10-07T18:34:28.130Z,8.48
2022-10-07T18:36:56.907Z,9.05
2022-10-07T18:39:27.627Z,9.75
2022-10-07T18:41:54.692Z,13.80
2022-10-07T18:44:22.209Z,4.57
2022-10-07T18:46:49.037Z,12.73
2022-10-07T18:49:16.990Z,8.73
2022-10-07T18:51:45.847Z,9.02
2022-10-07T18:54:13.156Z,10.30
2022-10-07T18:56:41.546Z,7.63
2022-10-07T18:59:13.204Z,7.70
2022-10-07T19:01:40.563Z,9.65
2022-10-07T19:04:11.660Z,8.07
2022-10-07T19:06:46.085Z,9.38
2022-10-07T19:09:17.947Z,5.32
2022-10-07T19:11:45.459Z,9.95
2022-10-07T19:14:12.845Z,13.55
2022-10-07T19:16:43.088Z,7.95
2022-10-07T19:19:19.635Z,8.73
2022-10-07T19:21:51.621Z,10.80
2022-10-07T19:24:19.948Z,9.85
2022-10-07T19:26:50.014Z,9.38
2022-10-07T19:29:18.191Z,6.38
2022-10-07T19:31:50.128Z,5.43
2022-10-07T19:34:22.250Z,8.52
2022-10-07T19:36:50.467Z,18.08
2022-10-07T19:39:22.702Z,9.32
2022-10-07T19:41:51.358Z,7.72
2022-10-07T19:44:19.233Z,11.20
2022-10-07T19:46:46.056Z,8.10
2022-10-07T19:49:12.934Z,13.43
2022-10-07T19:51:40.575Z,8.65
2022-10-07T19:54:10.208Z,7.95
2022-10-07T19:56:38.880Z,6.45
2022-10-07T19:59:12.749Z,9.68
2022-10-07T20:01:45.969Z,9.00
2022-10-07T20:04:18.933Z,15.00
2022-10-07T20:09:23.457Z,6.53
2022-10-07T20:11:50.321Z,8.65
2022-10-07T20:14:17.184Z,9.52
2022-10-07T20:16:44.384Z,9.25
2022-10-07T20:19:19.709Z,10.77
2022-10-07T20:21:46.962Z,10.43
2022-10-07T20:24:16.740Z,11.82
2022-10-07T20:26:45.155Z,11.88
2022-10-07T20:29:14.150Z,9.70
2022-10-07T20:31:42.160Z,11.93
2022-10-07T20:34:18.830Z,9.25
2022-10-07T20:36:45.688Z,11.18
2022-10-07T20:39:38.145Z,11.18
2022-10-07T20:42:21.434Z,14.65
2022-10-07T20:44:49.936Z,15.18
2022-10-07T20:47:18.132Z,11.70
2022-10-07T20:49:45.563Z,12.25
2022-10-07T20:52:17.287Z,17.08
2022-10-07T20:54:45.592Z,15.38
2022-10-07T20:57:18.666Z,11.00
2022-10-07T20:59:45.705Z,14.25
2022-10-07T21:02:15.807Z,8.35
2022-10-07T21:04:43.414Z,9.65
2022-10-07T21:07:10.548Z,12.48
2022-10-07T21:09:37.469Z,9.63
2022-10-07T21:12:07.657Z,15.43
2022-10-07T21:14:36.753Z,11.30
2022-10-07T21:17:05.248Z,14.10
2022-10-07T21:19:32.976Z,9.85
2022-10-07T21:21:59.954Z,11.75
2022-10-07T21:24:26.896Z,7.13
2022-10-07T21:26:53.751Z,6.20
2022-10-07T21:29:20.532Z,10.02
2022-10-07T21:31:47.349Z,9.85
2022-10-07T21:34:14.137Z,9.73
2022-10-07T21:36:50.355Z,8.77
2022-10-07T21:39:19.909Z,7.47
2022-10-07T21:41:48.263Z,8.13
2022-10-07T21:44:15.213Z,7.82
2022-10-07T21:46:42.958Z,11.55
2022-10-07T21:49:09.990Z,6.70
2022-10-07T21:51:37.293Z,14.48
2022-10-07T21:54:05.269Z,9.55
2022-10-07T21:56:33.644Z,7.32
2022-10-07T21:59:01.716Z,8.82
2022-10-07T22:01:29.356Z,8.85
2022-10-07T22:03:58.901Z,6.50
2022-10-07T22:06:45.615Z,8.10
2022-10-07T22:09:14.546Z,10.40
2022-10-07T22:11:42.371Z,18.00
2022-10-07T22:14:12.518Z,8.77
2022-10-07T22:16:39.968Z,12.68
2022-10-07T22:19:07.347Z,9.30
2022-10-07T22:21:38.525Z,17.02
2022-10-07T22:24:07.695Z,15.63
2022-10-07T22:26:42.417Z,12.57
2022-10-07T22:29:11.257Z,14.40
2022-10-07T22:31:38.740Z,12.57
2022-10-07T22:34:06.994Z,14.38
2022-10-07T22:36:34.448Z,11.80
2022-10-07T22:39:01.617Z,11.70
2022-10-07T22:41:29.600Z,12.48
2022-10-07T22:43:56.589Z,13.30
2022-10-07T22:46:27.999Z,12.68
2022-10-07T22:48:58.264Z,11.27
2022-10-07T22:51:29.581Z,12.20
2022-10-07T22:53:57.238Z,6.70
2022-10-07T22:56:28.161Z,10.07
2022-10-07T22:58:59.903Z,9.60
2022-10-07T23:01:29.739Z,14.85
2022-10-07T23:03:59.002Z,11.55
2022-10-07T23:06:25.833Z,7.78
2022-10-07T23:08:52.768Z,8.88
2022-10-07T23:11:23.491Z,11.52
2022-10-07T23:13:51.445Z,8.95
2022-10-07T23:16:29.738Z,8.68
2022-10-07T23:18:57.010Z,7.97
2022-10-07T23:21:28.199Z,12.20
2022-10-07T23:24:04.652Z,8.07
2022-10-07T23:26:34.466Z,5.65
2022-10-07T23:29:02.391Z,16.73
2022-10-07T23:31:31.935Z,10.38
2022-10-07T23:34:00.524Z,7.80
2022-10-07T23:36:27.627Z,9.57
2022-10-07T23:38:54.748Z,10.73
2022-10-07T23:41:28.413Z,12.10
2022-10-07T23:43:58.313Z,9.70
2022-10-07T23:46:27.559Z,7.90
2022-10-07T23:48:54.913Z,11.00
2022-10-07T23:51:26.193Z,5.50
2022-10-07T23:53:53.324Z,8.93
2022-10-07T23:56:20.087Z,6.10
2022-10-07T23:58:47.094Z,7.93
